sensor_id;sensor_type;location;lat;lon;timestamp;P1;durP1;ratioP1;P2;durP2;ratioP2
74821;SDS011;63353;48.702;8.884;2024-03-02T00:00:13;1999.90;;;999.90;;
74821;SDS011;63353;48.702;8.884;2024-03-02T00:02:42;1999.90;;;999.90;;
74821;SDS011;63353;48.702;8.884;2024-03-02T00:05:11;1999.90;;;999.90;;
74821;SDS011;63353;48.702;8.884;2024-03-02T00:07:45;1999.90;;;999.90;;
74821;SDS011;63353;48.702;8.884;2024-03-02T00:10:19;1999.90;;;999.90;;
74821;SDS011;63353;48.702;8.884;2024-03-02T00:12:50;1999.90;;;999.90;;
74821;SDS011;63353;48.702;8.884;2024-03-02T00:18:02;1999.90;;;999.90;;
74821;SDS011;63353;48.702;8.884;2024-03-02T00:20:29;1999.90;;;999.90;;
74821;SDS011;63353;48.702;8.884;2024-03-02T00:22:56;1999.90;;;999.90;;
74821;SDS011;63353;48.702;8.884;2024-03-02T00:25:41;1999.90;;;999.90;;
74821;SDS011;63353;48.702;8.884;2024-03-02T00:28:19;1999.90;;;999.90;;
74821;SDS011;63353;48.702;8.884;2024-03-02T00:31:06;1999.90;;;999.90;;
74821;SDS011;63353;48.702;8.884;2024-03-02T00:33:37;1999.90;;;999.90;;
74821;SDS011;63353;48.702;8.884;2024-03-02T00:36:06;1999.90;;;999.90;;
74821;SDS011;63353;48.702;8.884;2024-03-02T00:38:33;1999.90;;;999.90;;
74821;SDS011;63353;48.702;8.884;2024-03-02T00:41:08;1999.90;;;999.90;;
74821;SDS011;63353;48.702;8.884;2024-03-02T00:44:06;1999.90;;;999.90;;
74821;SDS011;63353;48.702;8.884;2024-03-02T00:46:40;1999.90;;;999.90;;
74821;SDS011;63353;48.702;8.884;2024-03-02T00:49:20;1999.90;;;999.90;;
74821;SDS011;63353;48.702;8.884;2024-03-02T00:51:47;1999.90;;;999.90;;
74821;SDS011;63353;48.702;8.884;2024-03-02T00:54:14;1999.90;;;999.90;;
74821;SDS011;63353;48.702;8.884;2024-03-02T00:56:41;1999.90;;;999.90;;
74821;SDS011;63353;48.702;8.884;2024-03-02T00:59:06;1999.90;;;999.90;;
74821;SDS011;63353;48.702;8.884;2024-03-02T01:01:34;1999.90;;;999.90;;
74821;SDS011;63353;48.702;8.884;2024-03-02T01:03:59;1999.90;;;999.90;;
74821;SDS011;63353;48.702;8.884;2024-03-02T01:06:26;1999.90;;;999.90;;
74821;SDS011;63353;48.702;8.884;2024-03-02T01:08:52;1999.90;;;999.90;;
74821;SDS011;63353;48.702;8.884;2024-03-02T01:11:18;1999.90;;;999.90;;
74821;SDS011;63353;48.702;8.884;2024-03-02T01:13:44;1999.90;;;999.90;;
74821;SDS011;63353;48.702;8.884;2024-03-02T01:16:11;1999.90;;;999.90;;
74821;SDS011;63353;48.702;8.884;2024-03-02T01:18:36;1999.90;;;999.90;;
74821;SDS011;63353;48.702;8.884;2024-03-02T01:21:02;1999.90;;;999.90;;
74821;SDS011;63353;48.702;8.884;2024-03-02T01:23:28;1999.90;;;999.90;;
74821;SDS011;63353;48.702;8.884;2024-03-02T01:25:54;1999.90;;;999.90;;
74821;SDS011;63353;48.702;8.884;2024-03-02T01:28:20;1999.90;;;999.90;;
74821;SDS011;63353;48.702;8.884;2024-03-02T01:30:46;1999.90;;;999.90;;
74821;SDS011;63353;48.702;8.884;2024-03-02T01:33:12;1999.90;;;999.90;;
74821;SDS011;63353;48.702;8.884;2024-03-02T01:35:38;1999.90;;;999.90;;
74821;SDS011;63353;48.702;8.884;2024-03-02T01:38:03;1999.90;;;999.90;;
74821;SDS011;63353;48.702;8.884;2024-03-02T01:40:35;1999.90;;;999.90;;
74821;SDS011;63353;48.702;8.884;2024-03-02T01:43:02;1999.90;;;999.90;;
74821;SDS011;63353;48.702;8.884;2024-03-02T01:45:28;1999.90;;;999.90;;
74821;SDS011;63353;48.702;8.884;2024-03-02T01:47:54;1999.90;;;999.90;;
74821;SDS011;63353;48.702;8.884;2024-03-02T01:50:27;1999.90;;;999.90;;
74821;SDS011;63353;48.702;8.884;2024-03-02T01:52:55;1999.90;;;999.90;;
74821;SDS011;63353;48.702;8.884;2024-03-02T01:55:21;1999.90;;;999.90;;
74821;SDS011;63353;48.702;8.884;2024-03-02T01:57:48;1999.90;;;999.90;;
74821;SDS011;63353;48.702;8.884;2024-03-02T02:00:18;1999.90;;;999.90;;
74821;SDS011;63353;48.702;8.884;2024-03-02T02:02:45;1999.90;;;999.90;;
74821;SDS011;63353;48.702;8.884;2024-03-02T02:05:12;1999.90;;;999.90;;
74821;SDS011;63353;48.702;8.884;2024-03-02T02:07:40;1999.90;;;999.90;;
74821;SDS011;63353;48.702;8.884;2024-03-02T02:10:07;1999.90;;;999.90;;
74821;SDS011;63353;48.702;8.884;2024-03-02T02:12:34;1999.90;;;999.90;;
74821;SDS011;63353;48.702;8.884;2024-03-02T02:15:00;1999.90;;;999.90;;
74821;SDS011;63353;48.702;8.884;2024-03-02T02:17:27;1999.90;;;999.90;;
74821;SDS011;63353;48.702;8.884;2024-03-02T02:19:53;1999.90;;;999.90;;
74821;SDS011;63353;48.702;8.884;2024-03-02T02:22:20;1999.90;;;999.90;;
74821;SDS011;63353;48.702;8.884;2024-03-02T02:24:45;1999.90;;;999.90;;
74821;SDS011;63353;48.702;8.884;2024-03-02T02:27:11;1999.90;;;999.90;;
74821;SDS011;63353;48.702;8.884;2024-03-02T02:29:40;1999.90;;;999.90;;
74821;SDS011;63353;48.702;8.884;2024-03-02T02:32:06;1999.90;;;999.90;;
74821;SDS011;63353;48.702;8.884;2024-03-02T02:34:32;1999.90;;;999.90;;
74821;SDS011;63353;48.702;8.884;2024-03-02T02:36:58;1999.90;;;999.90;;
74821;SDS011;63353;48.702;8.884;2024-03-02T02:39:24;1999.90;;;999.90;;
74821;SDS011;63353;48.702;8.884;2024-03-02T02:41:49;1999.90;;;999.90;;
74821;SDS011;63353;48.702;8.884;2024-03-02T02:44:16;1999.90;;;999.90;;
74821;SDS011;63353;48.702;8.884;2024-03-02T02:46:42;1999.90;;;999.90;;
74821;SDS011;63353;48.702;8.884;2024-03-02T02:49:07;1999.90;;;999.90;;
74821;SDS011;63353;48.702;8.884;2024-03-02T02:51:33;1999.90;;;999.90;;
74821;SDS011;63353;48.702;8.884;2024-03-02T02:53:59;1999.90;;;999.90;;
74821;SDS011;63353;48.702;8.884;2024-03-02T02:56:24;1999.90;;;999.90;;
74821;SDS011;63353;48.702;8.884;2024-03-02T02:58:50;1999.90;;;999.90;;
74821;SDS011;63353;48.702;8.884;2024-03-02T03:01:16;1999.90;;;999.90;;
74821;SDS011;63353;48.702;8.884;2024-03-02T03:03:44;1999.90;;;999.90;;
74821;SDS011;63353;48.702;8.884;2024-03-02T03:06:10;1999.90;;;999.90;;
74821;SDS011;63353;48.702;8.884;2024-03-02T03:08:36;1999.90;;;999.90;;
74821;SDS011;63353;48.702;8.884;2024-03-02T03:11:02;1999.90;;;999.90;;
74821;SDS011;63353;48.702;8.884;2024-03-02T03:13:28;1999.90;;;999.90;;
74821;SDS011;63353;48.702;8.884;2024-03-02T03:15:56;1999.90;;;999.90;;
74821;SDS011;63353;48.702;8.884;2024-03-02T03:18:21;1999.90;;;999.90;;
74821;SDS011;63353;48.702;8.884;2024-03-02T03:20:48;1999.90;;;999.90;;
74821;SDS011;63353;48.702;8.884;2024-03-02T03:23:15;1999.90;;;999.90;;
74821;SDS011;63353;48.702;8.884;2024-03-02T03:25:42;1999.90;;;999.90;;
74821;SDS011;63353;48.702;8.884;2024-03-02T03:28:09;1999.90;;;999.90;;
74821;SDS011;63353;48.702;8.884;2024-03-02T03:30:36;1999.90;;;999.90;;
74821;SDS011;63353;48.702;8.884;2024-03-02T03:33:03;1999.90;;;999.90;;
74821;SDS011;63353;48.702;8.884;2024-03-02T03:35:29;1999.90;;;999.90;;
74821;SDS011;63353;48.702;8.884;2024-03-02T03:37:55;1999.90;;;999.90;;
74821;SDS011;63353;48.702;8.884;2024-03-02T03:40:20;1999.90;;;999.90;;
74821;SDS011;63353;48.702;8.884;2024-03-02T03:42:46;1999.90;;;999.90;;
74821;SDS011;63353;48.702;8.884;2024-03-02T03:45:11;1999.90;;;999.90;;
74821;SDS011;63353;48.702;8.884;2024-03-02T03:47:37;1999.90;;;999.90;;
74821;SDS011;63353;48.702;8.884;2024-03-02T03:50:03;1999.90;;;999.90;;
74821;SDS011;63353;48.702;8.884;2024-03-02T03:52:31;1999.90;;;999.90;;
74821;SDS011;63353;48.702;8.884;2024-03-02T03:54:57;1999.90;;;999.90;;
74821;SDS011;63353;48.702;8.884;2024-03-02T03:57:23;1999.90;;;999.90;;
74821;SDS011;63353;48.702;8.884;2024-03-02T03:59:50;1999.90;;;999.90;;
74821;SDS011;63353;48.702;8.884;2024-03-02T04:02:15;1999.90;;;999.90;;
74821;SDS011;63353;48.702;8.884;2024-03-02T04:04:42;1999.90;;;999.90;;
74821;SDS011;63353;48.702;8.884;2024-03-02T04:07:08;1999.90;;;999.90;;
74821;SDS011;63353;48.702;8.884;2024-03-02T04:09:35;1999.90;;;999.90;;
74821;SDS011;63353;48.702;8.884;2024-03-02T04:12:02;1999.90;;;999.90;;
74821;SDS011;63353;48.702;8.884;2024-03-02T04:14:28;1999.90;;;999.90;;
74821;SDS011;63353;48.702;8.884;2024-03-02T04:16:55;1999.90;;;999.90;;
74821;SDS011;63353;48.702;8.884;2024-03-02T04:19:21;1999.90;;;999.90;;
74821;SDS011;63353;48.702;8.884;2024-03-02T04:21:47;1999.90;;;999.90;;
74821;SDS011;63353;48.702;8.884;2024-03-02T04:24:12;1999.90;;;999.90;;
74821;SDS011;63353;48.702;8.884;2024-03-02T04:26:38;1999.90;;;999.90;;
74821;SDS011;63353;48.702;8.884;2024-03-02T04:29:03;1999.90;;;999.90;;
74821;SDS011;63353;48.702;8.884;2024-03-02T04:31:29;1999.90;;;999.90;;
74821;SDS011;63353;48.702;8.884;2024-03-02T04:33:55;1999.90;;;999.90;;
74821;SDS011;63353;48.702;8.884;2024-03-02T04:36:20;1999.90;;;999.90;;
74821;SDS011;63353;48.702;8.884;2024-03-02T04:38:48;1999.90;;;999.90;;
74821;SDS011;63353;48.702;8.884;2024-03-02T04:41:14;1999.90;;;999.90;;
74821;SDS011;63353;48.702;8.884;2024-03-02T04:43:40;1999.90;;;999.90;;
74821;SDS011;63353;48.702;8.884;2024-03-02T04:46:07;1999.90;;;999.90;;
74821;SDS011;63353;48.702;8.884;2024-03-02T04:48:32;1999.90;;;999.90;;
74821;SDS011;63353;48.702;8.884;2024-03-02T04:50:59;1999.90;;;999.90;;
74821;SDS011;63353;48.702;8.884;2024-03-02T04:53:24;1999.90;;;999.90;;
74821;SDS011;63353;48.702;8.884;2024-03-02T04:55:50;1999.90;;;999.90;;
74821;SDS011;63353;48.702;8.884;2024-03-02T04:58:43;1999.90;;;999.90;;
74821;SDS011;63353;48.702;8.884;2024-03-02T05:01:08;1999.90;;;999.90;;
74821;SDS011;63353;48.702;8.884;2024-03-02T05:03:34;1999.90;;;999.90;;
74821;SDS011;63353;48.702;8.884;2024-03-02T05:06:00;1999.90;;;999.90;;
74821;SDS011;63353;48.702;8.884;2024-03-02T05:08:25;1999.90;;;999.90;;
74821;SDS011;63353;48.702;8.884;2024-03-02T05:10:51;1999.90;;;999.90;;
74821;SDS011;63353;48.702;8.884;2024-03-02T05:13:16;1999.90;;;999.90;;
74821;SDS011;63353;48.702;8.884;2024-03-02T05:15:42;1999.90;;;999.90;;
74821;SDS011;63353;48.702;8.884;2024-03-02T05:18:09;1999.90;;;999.90;;
74821;SDS011;63353;48.702;8.884;2024-03-02T05:20:36;1999.90;;;999.90;;
74821;SDS011;63353;48.702;8.884;2024-03-02T05:23:01;1999.90;;;999.90;;
74821;SDS011;63353;48.702;8.884;2024-03-02T05:25:27;1999.90;;;999.90;;
74821;SDS011;63353;48.702;8.884;2024-03-02T05:27:53;1999.90;;;999.90;;
74821;SDS011;63353;48.702;8.884;2024-03-02T05:30:21;1999.90;;;999.90;;
74821;SDS011;63353;48.702;8.884;2024-03-02T05:32:46;1999.90;;;999.90;;
74821;SDS011;63353;48.702;8.884;2024-03-02T05:35:12;1999.90;;;999.90;;
74821;SDS011;63353;48.702;8.884;2024-03-02T05:37:38;1999.90;;;999.90;;
74821;SDS011;63353;48.702;8.884;2024-03-02T05:40:04;1999.90;;;999.90;;
74821;SDS011;63353;48.702;8.884;2024-03-02T05:42:31;1999.90;;;999.90;;
74821;SDS011;63353;48.702;8.884;2024-03-02T05:44:56;1999.90;;;999.90;;
74821;SDS011;63353;48.702;8.884;2024-03-02T05:47:22;1999.90;;;999.90;;
74821;SDS011;63353;48.702;8.884;2024-03-02T05:49:49;1999.90;;;999.90;;
74821;SDS011;63353;48.702;8.884;2024-03-02T05:52:15;1999.90;;;999.90;;
74821;SDS011;63353;48.702;8.884;2024-03-02T05:54:40;1999.90;;;999.90;;
74821;SDS011;63353;48.702;8.884;2024-03-02T05:57:07;1999.90;;;999.90;;
74821;SDS011;63353;48.702;8.884;2024-03-02T05:59:47;1999.90;;;999.90;;
74821;SDS011;63353;48.702;8.884;2024-03-02T06:02:13;1999.90;;;999.90;;
74821;SDS011;63353;48.702;8.884;2024-03-02T06:04:39;1999.90;;;999.90;;
74821;SDS011;63353;48.702;8.884;2024-03-02T06:07:05;1999.90;;;999.90;;
74821;SDS011;63353;48.702;8.884;2024-03-02T06:09:31;1999.90;;;999.90;;
74821;SDS011;63353;48.702;8.884;2024-03-02T06:11:58;1999.90;;;999.90;;
74821;SDS011;63353;48.702;8.884;2024-03-02T06:14:25;1999.90;;;999.90;;
74821;SDS011;63353;48.702;8.884;2024-03-02T06:16:50;1999.90;;;999.90;;
74821;SDS011;63353;48.702;8.884;2024-03-02T06:19:16;1999.90;;;999.90;;
74821;SDS011;63353;48.702;8.884;2024-03-02T06:21:42;1999.90;;;999.90;;
74821;SDS011;63353;48.702;8.884;2024-03-02T06:24:08;1999.90;;;999.90;;
74821;SDS011;63353;48.702;8.884;2024-03-02T06:26:36;1999.90;;;999.90;;
74821;SDS011;63353;48.702;8.884;2024-03-02T06:29:01;1999.90;;;999.90;;
74821;SDS011;63353;48.702;8.884;2024-03-02T06:31:27;1999.90;;;999.90;;
74821;SDS011;63353;48.702;8.884;2024-03-02T06:33:53;1999.90;;;999.90;;
74821;SDS011;63353;48.702;8.884;2024-03-02T06:36:18;1999.90;;;999.90;;
74821;SDS011;63353;48.702;8.884;2024-03-02T06:38:44;1999.90;;;999.90;;
74821;SDS011;63353;48.702;8.884;2024-03-02T06:41:10;1999.90;;;999.90;;
74821;SDS011;63353;48.702;8.884;2024-03-02T06:43:35;1999.90;;;999.90;;
74821;SDS011;63353;48.702;8.884;2024-03-02T06:46:03;1999.90;;;999.90;;
74821;SDS011;63353;48.702;8.884;2024-03-02T06:48:29;1999.90;;;999.90;;
74821;SDS011;63353;48.702;8.884;2024-03-02T06:50:55;1999.90;;;999.90;;
74821;SDS011;63353;48.702;8.884;2024-03-02T06:53:22;1999.90;;;999.90;;
74821;SDS011;63353;48.702;8.884;2024-03-02T06:55:48;1999.90;;;999.90;;
74821;SDS011;63353;48.702;8.884;2024-03-02T06:58:13;1999.90;;;999.90;;
74821;SDS011;63353;48.702;8.884;2024-03-02T07:00:42;1999.90;;;999.90;;
74821;SDS011;63353;48.702;8.884;2024-03-02T07:03:09;1999.90;;;999.90;;
74821;SDS011;63353;48.702;8.884;2024-03-02T07:05:35;1999.90;;;999.90;;
74821;SDS011;63353;48.702;8.884;2024-03-02T07:08:01;1999.90;;;999.90;;
74821;SDS011;63353;48.702;8.884;2024-03-02T07:10:27;1999.90;;;999.90;;
74821;SDS011;63353;48.702;8.884;2024-03-02T07:12:53;1999.90;;;999.90;;
74821;SDS011;63353;48.702;8.884;2024-03-02T07:15:19;1999.90;;;999.90;;
74821;SDS011;63353;48.702;8.884;2024-03-02T07:18:08;1999.90;;;999.90;;
74821;SDS011;63353;48.702;8.884;2024-03-02T07:20:33;1999.90;;;999.90;;
74821;SDS011;63353;48.702;8.884;2024-03-02T07:22:59;1999.90;;;999.90;;
74821;SDS011;63353;48.702;8.884;2024-03-02T07:25:24;1999.90;;;999.90;;
74821;SDS011;63353;48.702;8.884;2024-03-02T07:27:50;1999.90;;;999.90;;
74821;SDS011;63353;48.702;8.884;2024-03-02T07:30:16;1999.90;;;999.90;;
74821;SDS011;63353;48.702;8.884;2024-03-02T07:32:44;1999.90;;;999.90;;
74821;SDS011;63353;48.702;8.884;2024-03-02T07:35:13;1999.90;;;999.90;;
74821;SDS011;63353;48.702;8.884;2024-03-02T07:37:39;1999.90;;;999.90;;
74821;SDS011;63353;48.702;8.884;2024-03-02T07:40:06;1999.90;;;999.90;;
74821;SDS011;63353;48.702;8.884;2024-03-02T07:42:36;1999.90;;;999.90;;
74821;SDS011;63353;48.702;8.884;2024-03-02T07:45:05;1999.90;;;999.90;;
74821;SDS011;63353;48.702;8.884;2024-03-02T07:47:33;1999.90;;;999.90;;
74821;SDS011;63353;48.702;8.884;2024-03-02T07:49:59;1999.90;;;999.90;;
74821;SDS011;63353;48.702;8.884;2024-03-02T07:52:25;1999.90;;;999.90;;
74821;SDS011;63353;48.702;8.884;2024-03-02T07:54:51;1999.90;;;999.90;;
74821;SDS011;63353;48.702;8.884;2024-03-02T07:57:17;1999.90;;;999.90;;
74821;SDS011;63353;48.702;8.884;2024-03-02T07:59:42;1999.90;;;999.90;;
74821;SDS011;63353;48.702;8.884;2024-03-02T08:02:08;1999.90;;;999.90;;
74821;SDS011;63353;48.702;8.884;2024-03-02T08:04:34;1999.90;;;999.90;;
74821;SDS011;63353;48.702;8.884;2024-03-02T08:07:01;1999.90;;;999.90;;
74821;SDS011;63353;48.702;8.884;2024-03-02T08:09:26;1999.90;;;999.90;;
74821;SDS011;63353;48.702;8.884;2024-03-02T08:11:52;1999.90;;;999.90;;
74821;SDS011;63353;48.702;8.884;2024-03-02T08:14:18;1999.90;;;999.90;;
74821;SDS011;63353;48.702;8.884;2024-03-02T08:16:43;1999.90;;;999.90;;
74821;SDS011;63353;48.702;8.884;2024-03-02T08:19:10;1999.90;;;999.90;;
74821;SDS011;63353;48.702;8.884;2024-03-02T08:21:36;1999.90;;;999.90;;
74821;SDS011;63353;48.702;8.884;2024-03-02T08:24:02;1999.90;;;999.90;;
74821;SDS011;63353;48.702;8.884;2024-03-02T08:26:28;1999.90;;;999.90;;
74821;SDS011;63353;48.702;8.884;2024-03-02T08:28:54;1999.90;;;999.90;;
74821;SDS011;63353;48.702;8.884;2024-03-02T08:31:20;1999.90;;;999.90;;
74821;SDS011;63353;48.702;8.884;2024-03-02T08:33:46;1999.90;;;999.90;;
74821;SDS011;63353;48.702;8.884;2024-03-02T08:36:12;1999.90;;;999.90;;
74821;SDS011;63353;48.702;8.884;2024-03-02T08:38:37;1999.90;;;999.90;;
74821;SDS011;63353;48.702;8.884;2024-03-02T08:41:04;282.37;;;256.37;;
74821;SDS011;63353;48.702;8.884;2024-03-02T08:43:29;1372.10;;;701.73;;
74821;SDS011;63353;48.702;8.884;2024-03-02T08:45:55;1999.90;;;999.90;;
74821;SDS011;63353;48.702;8.884;2024-03-02T08:48:22;1999.90;;;999.90;;
74821;SDS011;63353;48.702;8.884;2024-03-02T08:50:48;1999.90;;;999.90;;
74821;SDS011;63353;48.702;8.884;2024-03-02T08:53:14;281.27;;;266.73;;
74821;SDS011;63353;48.702;8.884;2024-03-02T08:55:43;406.17;;;384.47;;
74821;SDS011;63353;48.702;8.884;2024-03-02T08:58:12;458.97;;;434.67;;
74821;SDS011;63353;48.702;8.884;2024-03-02T09:00:37;225.13;;;211.43;;
74821;SDS011;63353;48.702;8.884;2024-03-02T09:03:03;180.40;;;171.73;;
74821;SDS011;63353;48.702;8.884;2024-03-02T09:05:29;124.93;;;119.03;;
74821;SDS011;63353;48.702;8.884;2024-03-02T09:07:55;97.77;;;93.03;;
74821;SDS011;63353;48.702;8.884;2024-03-02T09:10:20;49.93;;;47.33;;
74821;SDS011;63353;48.702;8.884;2024-03-02T09:12:47;56.37;;;53.37;;
74821;SDS011;63353;48.702;8.884;2024-03-02T09:15:13;56.63;;;53.73;;
74821;SDS011;63353;48.702;8.884;2024-03-02T09:17:38;26.90;;;25.07;;
74821;SDS011;63353;48.702;8.884;2024-03-02T09:20:05;29.50;;;27.80;;
74821;SDS011;63353;48.702;8.884;2024-03-02T09:22:31;127.13;;;121.40;;
74821;SDS011;63353;48.702;8.884;2024-03-02T09:24:57;58.80;;;55.87;;
74821;SDS011;63353;48.702;8.884;2024-03-02T09:27:24;448.30;;;425.37;;
74821;SDS011;63353;48.702;8.884;2024-03-02T09:29:51;539.03;;;511.77;;
74821;SDS011;63353;48.702;8.884;2024-03-02T09:32:17;513.23;;;489.13;;
74821;SDS011;63353;48.702;8.884;2024-03-02T09:34:44;583.43;;;553.37;;
74821;SDS011;63353;48.702;8.884;2024-03-02T09:37:14;553.57;;;526.53;;
74821;SDS011;63353;48.702;8.884;2024-03-02T09:39:40;494.70;;;471.47;;
74821;SDS011;63353;48.702;8.884;2024-03-02T09:42:10;382.83;;;365.20;;
74821;SDS011;63353;48.702;8.884;2024-03-02T09:44:36;697.10;;;660.00;;
74821;SDS011;63353;48.702;8.884;2024-03-02T09:47:02;632.97;;;600.77;;
74821;SDS011;63353;48.702;8.884;2024-03-02T09:49:28;636.90;;;604.93;;
74821;SDS011;63353;48.702;8.884;2024-03-02T09:51:54;441.57;;;421.20;;
74821;SDS011;63353;48.702;8.884;2024-03-02T09:54:21;290.13;;;276.73;;
74821;SDS011;63353;48.702;8.884;2024-03-02T09:56:47;395.70;;;378.03;;
74821;SDS011;63353;48.702;8.884;2024-03-02T09:59:15;427.87;;;408.83;;
74821;SDS011;63353;48.702;8.884;2024-03-02T10:04:25;436.67;;;417.30;;
74821;SDS011;63353;48.702;8.884;2024-03-02T10:06:51;331.90;;;317.93;;
74821;SDS011;63353;48.702;8.884;2024-03-02T10:09:29;435.67;;;416.00;;
74821;SDS011;63353;48.702;8.884;2024-03-02T10:12:03;408.33;;;390.43;;
74821;SDS011;63353;48.702;8.884;2024-03-02T10:14:30;524.97;;;500.40;;
74821;SDS011;63353;48.702;8.884;2024-03-02T10:16:55;295.60;;;282.77;;
74821;SDS011;63353;48.702;8.884;2024-03-02T10:19:28;145.67;;;139.03;;
74821;SDS011;63353;48.702;8.884;2024-03-02T10:22:09;21.20;;;7.20;;
74821;SDS011;63353;48.702;8.884;2024-03-02T10:24:44;40.97;;;39.03;;
74821;SDS011;63353;48.702;8.884;2024-03-02T10:27:16;82.50;;;78.67;;
74821;SDS011;63353;48.702;8.884;2024-03-02T10:29:53;33.37;;;31.63;;
74821;SDS011;63353;48.702;8.884;2024-03-02T10:32:18;15.13;;;14.20;;
74821;SDS011;63353;48.702;8.884;2024-03-02T10:34:47;6.10;;;5.50;;
74821;SDS011;63353;48.702;8.884;2024-03-02T10:37:15;5.87;;;5.40;;
74821;SDS011;63353;48.702;8.884;2024-03-02T10:39:42;6.20;;;5.60;;
74821;SDS011;63353;48.702;8.884;2024-03-02T10:42:10;6.40;;;5.77;;
74821;SDS011;63353;48.702;8.884;2024-03-02T10:44:37;6.60;;;5.60;;
74821;SDS011;63353;48.702;8.884;2024-03-02T10:47:04;6.33;;;5.27;;
74821;SDS011;63353;48.702;8.884;2024-03-02T10:49:30;7.20;;;6.67;;
74821;SDS011;63353;48.702;8.884;2024-03-02T10:51:58;8.17;;;7.37;;
74821;SDS011;63353;48.702;8.884;2024-03-02T10:54:24;7.60;;;7.10;;
74821;SDS011;63353;48.702;8.884;2024-03-02T10:56:55;6.50;;;5.93;;
74821;SDS011;63353;48.702;8.884;2024-03-02T11:02:00;8.20;;;7.47;;
74821;SDS011;63353;48.702;8.884;2024-03-02T11:04:29;5.90;;;5.60;;
74821;SDS011;63353;48.702;8.884;2024-03-02T11:07:04;7.40;;;6.90;;
74821;SDS011;63353;48.702;8.884;2024-03-02T11:09:37;6.33;;;5.93;;
74821;SDS011;63353;48.702;8.884;2024-03-02T11:12:13;6.67;;;6.10;;
74821;SDS011;63353;48.702;8.884;2024-03-02T11:14:44;7.07;;;6.67;;
74821;SDS011;63353;48.702;8.884;2024-03-02T11:17:11;7.23;;;6.63;;
74821;SDS011;63353;48.702;8.884;2024-03-02T11:19:43;6.30;;;5.97;;
74821;SDS011;63353;48.702;8.884;2024-03-02T11:22:10;6.40;;;6.00;;
74821;SDS011;63353;48.702;8.884;2024-03-02T11:24:37;7.00;;;6.53;;
74821;SDS011;63353;48.702;8.884;2024-03-02T11:27:04;7.20;;;6.87;;
74821;SDS011;63353;48.702;8.884;2024-03-02T11:32:03;7.47;;;7.10;;
74821;SDS011;63353;48.702;8.884;2024-03-02T11:34:41;8.47;;;8.07;;
74821;SDS011;63353;48.702;8.884;2024-03-02T11:37:12;8.10;;;7.50;;
74821;SDS011;63353;48.702;8.884;2024-03-02T11:39:39;9.50;;;9.00;;
74821;SDS011;63353;48.702;8.884;2024-03-02T11:42:05;7.83;;;7.27;;
74821;SDS011;63353;48.702;8.884;2024-03-02T11:44:33;8.50;;;8.10;;
74821;SDS011;63353;48.702;8.884;2024-03-02T11:47:01;4.97;;;4.67;;
74821;SDS011;63353;48.702;8.884;2024-03-02T11:52:16;6.13;;;5.87;;
74821;SDS011;63353;48.702;8.884;2024-03-02T11:54:43;3.73;;;3.53;;
74821;SDS011;63353;48.702;8.884;2024-03-02T11:57:14;4.23;;;4.03;;
74821;SDS011;63353;48.702;8.884;2024-03-02T11:59:42;3.50;;;3.40;;
74821;SDS011;63353;48.702;8.884;2024-03-02T12:02:15;4.00;;;3.80;;
74821;SDS011;63353;48.702;8.884;2024-03-02T12:04:45;3.53;;;3.43;;
74821;SDS011;63353;48.702;8.884;2024-03-02T12:07:13;3.43;;;3.33;;
74821;SDS011;63353;48.702;8.884;2024-03-02T12:09:48;3.47;;;3.37;;
74821;SDS011;63353;48.702;8.884;2024-03-02T12:12:23;3.20;;;3.10;;
74821;SDS011;63353;48.702;8.884;2024-03-02T12:14:50;3.50;;;3.40;;
74821;SDS011;63353;48.702;8.884;2024-03-02T12:17:17;3.43;;;3.27;;
74821;SDS011;63353;48.702;8.884;2024-03-02T12:19:43;4.00;;;3.90;;
74821;SDS011;63353;48.702;8.884;2024-03-02T12:22:09;3.13;;;3.03;;
74821;SDS011;63353;48.702;8.884;2024-03-02T12:24:34;3.20;;;3.10;;
74821;SDS011;63353;48.702;8.884;2024-03-02T12:27:03;4.60;;;4.40;;
74821;SDS011;63353;48.702;8.884;2024-03-02T12:29:30;3.63;;;3.53;;
74821;SDS011;63353;48.702;8.884;2024-03-02T12:31:57;4.00;;;3.90;;
74821;SDS011;63353;48.702;8.884;2024-03-02T12:34:23;3.80;;;3.70;;
74821;SDS011;63353;48.702;8.884;2024-03-02T12:36:49;3.20;;;3.10;;
74821;SDS011;63353;48.702;8.884;2024-03-02T12:39:18;3.07;;;2.97;;
74821;SDS011;63353;48.702;8.884;2024-03-02T12:41:47;2.77;;;2.67;;
74821;SDS011;63353;48.702;8.884;2024-03-02T12:44:17;3.10;;;3.00;;
74821;SDS011;63353;48.702;8.884;2024-03-02T12:46:46;3.40;;;3.30;;
74821;SDS011;63353;48.702;8.884;2024-03-02T12:49:13;2.93;;;2.83;;
74821;SDS011;63353;48.702;8.884;2024-03-02T12:51:42;13.63;;;12.23;;
74821;SDS011;63353;48.702;8.884;2024-03-02T12:54:09;3.47;;;3.37;;
74821;SDS011;63353;48.702;8.884;2024-03-02T12:56:40;2.83;;;2.73;;
74821;SDS011;63353;48.702;8.884;2024-03-02T12:59:17;2.70;;;2.60;;
74821;SDS011;63353;48.702;8.884;2024-03-02T13:01:51;3.33;;;3.23;;
74821;SDS011;63353;48.702;8.884;2024-03-02T13:04:21;3.03;;;2.93;;
74821;SDS011;63353;48.702;8.884;2024-03-02T13:06:48;4.17;;;4.00;;
74821;SDS011;63353;48.702;8.884;2024-03-02T13:09:14;3.80;;;3.70;;
74821;SDS011;63353;48.702;8.884;2024-03-02T13:11:41;3.30;;;3.20;;
74821;SDS011;63353;48.702;8.884;2024-03-02T13:14:07;3.83;;;3.63;;
74821;SDS011;63353;48.702;8.884;2024-03-02T13:16:39;3.57;;;3.47;;
74821;SDS011;63353;48.702;8.884;2024-03-02T13:19:11;3.97;;;3.87;;
74821;SDS011;63353;48.702;8.884;2024-03-02T13:21:38;3.77;;;3.57;;
74821;SDS011;63353;48.702;8.884;2024-03-02T13:24:05;3.73;;;3.63;;
74821;SDS011;63353;48.702;8.884;2024-03-02T13:26:31;4.40;;;4.20;;
74821;SDS011;63353;48.702;8.884;2024-03-02T13:28:59;4.70;;;4.40;;
74821;SDS011;63353;48.702;8.884;2024-03-02T13:31:25;5.13;;;4.83;;
74821;SDS011;63353;48.702;8.884;2024-03-02T13:33:50;4.23;;;4.07;;
74821;SDS011;63353;48.702;8.884;2024-03-02T13:36:16;3.87;;;3.70;;
74821;SDS011;63353;48.702;8.884;2024-03-02T13:38:42;5.23;;;4.83;;
74821;SDS011;63353;48.702;8.884;2024-03-02T13:41:07;4.30;;;4.00;;
74821;SDS011;63353;48.702;8.884;2024-03-02T13:43:33;4.33;;;4.13;;
74821;SDS011;63353;48.702;8.884;2024-03-02T13:46:02;4.43;;;4.23;;
74821;SDS011;63353;48.702;8.884;2024-03-02T13:48:28;4.10;;;3.90;;
74821;SDS011;63353;48.702;8.884;2024-03-02T13:50:54;4.20;;;4.00;;
74821;SDS011;63353;48.702;8.884;2024-03-02T13:53:20;4.50;;;4.30;;
74821;SDS011;63353;48.702;8.884;2024-03-02T13:55:45;4.67;;;4.47;;
74821;SDS011;63353;48.702;8.884;2024-03-02T13:58:14;3.70;;;3.50;;
74821;SDS011;63353;48.702;8.884;2024-03-02T14:00:41;3.90;;;3.60;;
74821;SDS011;63353;48.702;8.884;2024-03-02T14:03:06;3.60;;;3.40;;
74821;SDS011;63353;48.702;8.884;2024-03-02T14:05:32;4.07;;;3.87;;
74821;SDS011;63353;48.702;8.884;2024-03-02T14:07:58;3.60;;;3.40;;
74821;SDS011;63353;48.702;8.884;2024-03-02T14:10:26;3.30;;;3.20;;
74821;SDS011;63353;48.702;8.884;2024-03-02T14:12:52;5.77;;;5.47;;
74821;SDS011;63353;48.702;8.884;2024-03-02T14:15:20;18.57;;;17.67;;